createdAt,value
2022-11-24T00:01:15.835Z,13.95
2022-11-24T00:03:44.040Z,12.90
2022-11-24T00:06:13.798Z,13.73
2022-11-24T00:08:42.818Z,14.07
2022-11-24T00:11:13.231Z,14.35
2022-11-24T00:13:41.605Z,13.95
2022-11-24T00:16:13.709Z,14.38
2022-11-24T00:18:42.297Z,14.97
2022-11-24T00:21:10.371Z,14.65
2022-11-24T00:23:38.255Z,16.00
2022-11-24T00:26:06.531Z,12.65
2022-11-24T00:28:35.220Z,14.25
2022-11-24T00:31:03.017Z,13.37
2022-11-24T00:33:30.050Z,13.23
2022-11-24T00:35:58.871Z,13.98
2022-11-24T00:38:26.570Z,12.68
2022-11-24T00:40:55.479Z,14.27
2022-11-24T00:43:22.571Z,14.93
2022-11-24T00:45:49.849Z,12.93
2022-11-24T00:48:16.895Z,12.48
2022-11-24T00:50:43.899Z,11.88
2022-11-24T00:53:10.951Z,15.93
2022-11-24T00:55:38.067Z,13.47
2022-11-24T00:58:05.115Z,13.05
2022-11-24T01:00:35.343Z,11.32
2022-11-24T01:03:05.207Z,11.60
2022-11-24T01:05:32.247Z,12.25
2022-11-24T01:07:59.118Z,11.77
2022-11-24T01:10:26.375Z,10.32
2022-11-24T01:12:53.747Z,10.80
2022-11-24T01:15:23.862Z,15.07
2022-11-24T01:17:51.376Z,11.38
2022-11-24T01:20:18.516Z,9.63
2022-11-24T01:22:48.819Z,12.25
2022-11-24T01:25:16.319Z,11.57
2022-11-24T01:27:43.304Z,11.85
2022-11-24T01:30:11.210Z,11.02
2022-11-24T01:32:38.199Z,12.80
2022-11-24T01:35:06.390Z,13.32
2022-11-24T01:37:33.521Z,12.77
2022-11-24T01:40:00.918Z,10.30
2022-11-24T01:42:40.302Z,11.02
2022-11-24T01:45:28.558Z,12.40
2022-11-24T01:47:56.310Z,15.05
2022-11-24T01:50:23.813Z,13.25
2022-11-24T01:52:54.277Z,12.25
2022-11-24T01:55:34.003Z,11.95
2022-11-24T01:58:09.075Z,13.53
2022-11-24T02:00:38.656Z,12.20
2022-11-24T02:03:06.667Z,13.50
2022-11-24T02:05:41.286Z,11.02
2022-11-24T02:08:19.538Z,12.25
2022-11-24T02:10:47.511Z,11.53
2022-11-24T02:13:15.993Z,13.32
2022-11-24T02:15:43.255Z,14.48
2022-11-24T02:18:12.428Z,13.60
2022-11-24T02:20:39.638Z,13.13
2022-11-24T02:23:21.552Z,12.97
2022-11-24T02:26:11.794Z,12.70
2022-11-24T02:28:39.205Z,15.80
2022-11-24T02:31:06.484Z,14.93
2022-11-24T02:33:34.901Z,12.88
2022-11-24T02:36:01.955Z,14.17
2022-11-24T02:38:37.712Z,14.68
2022-11-24T02:41:11.451Z,15.43
2022-11-24T02:43:55.060Z,14.45
2022-11-24T02:46:22.519Z,14.50
2022-11-24T02:48:49.510Z,14.27
2022-11-24T02:51:16.645Z,15.20
2022-11-24T02:53:43.994Z,15.40
2022-11-24T02:56:11.042Z,14.48
2022-11-24T02:58:38.164Z,15.52
2022-11-24T03:01:05.478Z,16.10
2022-11-24T03:03:32.628Z,14.57
2022-11-24T03:05:59.666Z,14.63
2022-11-24T03:08:26.586Z,16.55
2022-11-24T03:10:54.678Z,16.00
2022-11-24T03:13:21.765Z,18.00
2022-11-24T03:15:49.075Z,17.42
2022-11-24T03:18:16.142Z,18.20
2022-11-24T03:20:43.051Z,18.42
2022-11-24T03:23:10.319Z,18.48
2022-11-24T03:25:37.376Z,17.47
2022-11-24T03:28:10.062Z,18.38
2022-11-24T03:30:37.136Z,18.17
2022-11-24T03:33:05.248Z,14.27
2022-11-24T03:35:32.227Z,16.65
2022-11-24T03:37:59.350Z,15.33
2022-11-24T03:40:26.440Z,17.25
2022-11-24T03:42:53.546Z,15.13
2022-11-24T03:45:44.910Z,16.90
2022-11-24T03:48:08.220Z,17.15
2022-11-24T03:50:35.343Z,16.03
2022-11-24T03:53:02.482Z,16.42
2022-11-24T03:55:29.424Z,16.63
2022-11-24T03:57:56.507Z,18.35
2022-11-24T04:00:23.516Z,15.10
2022-11-24T04:02:50.767Z,14.97
2022-11-24T04:05:17.817Z,20.50
2022-11-24T04:07:44.919Z,16.75
2022-11-24T04:10:12.003Z,14.05
2022-11-24T04:12:46.232Z,17.00
2022-11-24T04:15:15.937Z,18.83
2022-11-24T04:17:44.285Z,14.13
2022-11-24T04:20:12.532Z,17.15
2022-11-24T04:22:40.064Z,15.48
2022-11-24T04:25:08.508Z,15.73
2022-11-24T04:27:37.192Z,16.63
2022-11-24T04:30:08.145Z,20.67
2022-11-24T04:32:35.776Z,16.38
2022-11-24T04:35:04.465Z,19.63
2022-11-24T04:37:31.496Z,20.95
2022-11-24T04:39:58.508Z,18.30
2022-11-24T04:42:25.541Z,15.52
2022-11-24T04:44:52.759Z,18.33
2022-11-24T04:47:25.641Z,20.10
2022-11-24T04:49:55.623Z,19.35
2022-11-24T04:52:24.491Z,15.63
2022-11-24T04:54:51.950Z,15.35
2022-11-24T04:57:24.820Z,18.08
2022-11-24T04:59:52.906Z,17.13
2022-11-24T05:02:20.791Z,14.82
2022-11-24T05:04:48.221Z,18.47
2022-11-24T05:07:18.975Z,18.42
2022-11-24T05:10:05.937Z,18.02
2022-11-24T05:12:33.171Z,18.77
2022-11-24T05:15:05.012Z,18.23
2022-11-24T05:17:34.981Z,17.23
2022-11-24T05:20:02.397Z,21.02
2022-11-24T05:22:31.761Z,20.02
2022-11-24T05:24:59.115Z,17.27
2022-11-24T05:27:26.073Z,16.30
2022-11-24T05:29:53.224Z,16.40
2022-11-24T05:32:20.372Z,17.13
2022-11-24T05:34:48.101Z,20.77
2022-11-24T05:37:15.184Z,20.08
2022-11-24T05:39:42.132Z,18.85
2022-11-24T05:42:28.173Z,17.23
2022-11-24T05:44:55.330Z,17.48
2022-11-24T05:47:22.366Z,16.85
2022-11-24T05:49:49.893Z,17.13
2022-11-24T05:52:17.013Z,18.90
2022-11-24T05:54:44.037Z,16.63
2022-11-24T05:57:10.938Z,19.48
2022-11-24T05:59:38.009Z,20.42
2022-11-24T06:02:05.090Z,19.95
2022-11-24T06:04:32.596Z,20.60
2022-11-24T06:07:00.023Z,18.87
2022-11-24T06:09:27.188Z,18.80
2022-11-24T06:11:56.790Z,16.33
2022-11-24T06:14:24.395Z,19.25
2022-11-24T06:16:51.672Z,18.05
2022-11-24T06:19:18.740Z,19.43
2022-11-24T06:21:45.688Z,15.48
2022-11-24T06:24:12.894Z,15.48
2022-11-24T06:26:39.861Z,20.92
2022-11-24T06:29:07.023Z,23.45
2022-11-24T06:31:34.034Z,17.93
2022-11-24T06:34:01.138Z,18.60
2022-11-24T06:36:28.335Z,14.60
2022-11-24T06:38:55.452Z,19.73
2022-11-24T06:41:22.395Z,17.08
2022-11-24T06:43:49.429Z,17.33
2022-11-24T06:46:16.410Z,17.33
2022-11-24T06:48:43.427Z,19.58
2022-11-24T06:51:15.393Z,16.77
2022-11-24T06:53:42.369Z,17.63
2022-11-24T06:56:16.393Z,17.03
2022-11-24T06:58:46.418Z,18.65
2022-11-24T07:01:32.518Z,19.58
2022-11-24T07:03:59.674Z,14.02
2022-11-24T07:06:28.513Z,16.48
2022-11-24T07:08:55.641Z,16.97
2022-11-24T07:11:24.135Z,20.25
2022-11-24T07:13:55.178Z,17.70
2022-11-24T07:16:26.672Z,20.65
2022-11-24T07:18:56.022Z,17.40
2022-11-24T07:21:24.253Z,23.17
2022-11-24T07:23:53.096Z,20.02
2022-11-24T07:26:20.699Z,20.13
2022-11-24T07:28:47.730Z,21.05
2022-11-24T07:31:21.079Z,19.92
2022-11-24T07:33:53.723Z,21.67
2022-11-24T07:36:22.005Z,20.23
2022-11-24T07:38:50.249Z,21.13
2022-11-24T07:41:22.469Z,23.17
2022-11-24T07:43:51.010Z,19.35
2022-11-24T07:46:22.739Z,22.03
2022-11-24T07:48:50.443Z,19.75
2022-11-24T07:51:23.139Z,18.10
2022-11-24T07:53:56.450Z,21.45
2022-11-24T07:56:28.805Z,22.10
2022-11-24T07:58:58.644Z,17.63
2022-11-24T08:01:26.986Z,22.88
2022-11-24T08:03:58.088Z,19.73
2022-11-24T08:06:27.674Z,19.30
2022-11-24T08:08:58.458Z,22.10
2022-11-24T08:11:26.285Z,19.60
2022-11-24T08:13:54.111Z,20.80
2022-11-24T08:16:21.283Z,22.10
2022-11-24T08:18:54.003Z,19.55
2022-11-24T08:21:23.400Z,15.63
2022-11-24T08:23:56.834Z,18.00
2022-11-24T08:26:25.358Z,20.40
2022-11-24T08:28:58.130Z,16.50
2022-11-24T08:31:34.300Z,19.52
2022-11-24T08:34:02.948Z,17.10
2022-11-24T08:36:30.018Z,19.30
2022-11-24T08:38:59.110Z,16.65
2022-11-24T08:41:28.235Z,16.25
2022-11-24T08:43:56.022Z,19.15
2022-11-24T08:47:13.653Z,16.65
2022-11-24T08:49:34.756Z,19.80
2022-11-24T08:52:10.039Z,16.73
2022-11-24T08:54:42.879Z,15.68
2022-11-24T08:57:21.649Z,19.67
2022-11-24T09:00:07.675Z,17.60
2022-11-24T09:02:46.367Z,20.47
2022-11-24T09:08:11.697Z,19.30
2022-11-24T09:13:46.344Z,15.70
2022-11-24T09:16:23.134Z,18.90
2022-11-24T09:32:16.480Z,19.60
2022-11-24T09:37:48.728Z,19.35
2022-11-24T09:44:11.144Z,21.30
2022-11-24T09:46:53.127Z,16.60
2022-11-24T09:50:02.634Z,18.83
2022-11-24T09:53:16.053Z,21.45
2022-11-24T09:56:26.956Z,15.98
2022-11-24T09:59:03.707Z,17.67
2022-11-24T10:01:47.921Z,17.87
2022-11-24T10:04:42.350Z,17.20
2022-11-24T10:07:12.145Z,19.70
2022-11-24T10:09:44.944Z,19.27
2022-11-24T10:12:21.356Z,20.60
2022-11-24T10:15:16.577Z,17.60
2022-11-24T10:18:13.237Z,20.67
2022-11-24T10:21:06.388Z,22.13
2022-11-24T10:24:08.192Z,18.23
2022-11-24T10:27:28.095Z,19.50
2022-11-24T10:30:23.740Z,21.47
2022-11-24T10:33:30.552Z,21.75
2022-11-24T10:36:23.199Z,20.85
2022-11-24T10:39:24.119Z,21.83
2022-11-24T10:43:00.263Z,23.65
2022-11-24T10:45:37.542Z,26.70
2022-11-24T10:48:09.082Z,23.33
2022-11-24T10:50:41.752Z,22.70
2022-11-24T10:53:08.910Z,23.30
2022-11-24T10:55:56.460Z,24.35
2022-11-24T11:03:40.448Z,22.40
2022-11-24T11:06:51.797Z,20.23
2022-11-24T11:10:18.849Z,14.75
2022-11-24T11:12:48.610Z,13.25
2022-11-24T11:15:29.661Z,17.90
2022-11-24T11:18:26.022Z,18.58
2022-11-24T11:21:46.280Z,16.80
2022-11-24T11:25:27.853Z,18.38
2022-11-24T11:35:53.499Z,17.33
2022-11-24T11:38:21.203Z,20.67
2022-11-24T11:43:46.015Z,19.88
2022-11-24T11:46:27.327Z,21.53
2022-11-24T11:48:59.948Z,20.90
2022-11-24T11:51:59.347Z,20.63
2022-11-24T12:02:36.639Z,18.93
2022-11-24T12:05:26.237Z,17.25
2022-11-24T12:08:16.018Z,21.00
2022-11-24T12:11:10.327Z,20.48
2022-11-24T12:14:19.805Z,22.42
2022-11-24T12:17:27.699Z,25.00
2022-11-24T12:20:46.044Z,23.00
2022-11-24T12:24:07.588Z,33.30
2022-11-24T12:27:23.341Z,34.97
2022-11-24T12:30:53.435Z,29.98
2022-11-24T12:34:44.295Z,31.40
2022-11-24T12:37:46.228Z,28.58
2022-11-24T12:44:10.159Z,31.95
2022-11-24T12:47:28.296Z,25.25
2022-11-24T12:50:16.527Z,25.70
2022-11-24T13:06:02.847Z,21.17
2022-11-24T13:08:51.682Z,27.57
2022-11-24T13:11:22.519Z,24.85
2022-11-24T13:14:11.475Z,21.38
2022-11-24T13:17:21.875Z,26.33
2022-11-24T13:21:43.483Z,28.13
2022-11-24T13:32:55.150Z,26.17
2022-11-24T13:38:58.218Z,21.17
2022-11-24T13:52:42.353Z,23.40
2022-11-24T13:55:23.609Z,26.35
2022-11-24T13:57:54.491Z,28.77
2022-11-24T14:00:33.460Z,25.03
2022-11-24T14:03:30.912Z,23.80
2022-11-24T14:05:59.558Z,25.88
2022-11-24T14:08:30.423Z,26.30
2022-11-24T14:10:59.450Z,24.92
2022-11-24T14:13:32.567Z,27.90
2022-11-24T14:16:12.687Z,27.08
2022-11-24T14:18:42.815Z,27.30
2022-11-24T14:21:44.611Z,22.52
2022-11-24T14:24:53.878Z,19.95
2022-11-24T14:27:41.210Z,19.43
2022-11-24T14:30:22.391Z,25.90
2022-11-24T14:32:56.043Z,20.27
2022-11-24T14:35:26.212Z,23.40
2022-11-24T14:37:56.043Z,22.48
2022-11-24T14:44:01.514Z,22.77
2022-11-24T14:46:28.826Z,21.73
2022-11-24T14:48:59.248Z,19.92
2022-11-24T14:51:33.227Z,19.13
2022-11-24T14:54:12.418Z,19.93
2022-11-24T14:56:46.201Z,21.92
2022-11-24T14:59:26.651Z,17.98
2022-11-24T15:01:59.781Z,18.58
2022-11-24T15:07:19.631Z,22.10
2022-11-24T15:10:43.728Z,19.50
2022-11-24T15:13:21.658Z,22.85
2022-11-24T15:16:03.416Z,16.70
2022-11-24T15:18:56.984Z,19.10
2022-11-24T15:21:35.386Z,17.90
2022-11-24T15:24:19.513Z,17.60
2022-11-24T15:26:47.129Z,22.20
2022-11-24T15:29:14.802Z,17.20
2022-11-24T15:31:46.432Z,18.30
2022-11-24T15:34:18.342Z,18.30
2022-11-24T15:36:45.757Z,17.17
2022-11-24T15:39:13.723Z,16.58
2022-11-24T15:41:40.963Z,22.08
2022-11-24T15:44:09.720Z,14.63
2022-11-24T15:46:38.860Z,17.30
2022-11-24T15:49:06.640Z,16.63
2022-11-24T15:51:42.908Z,14.18
2022-11-24T15:54:14.450Z,16.30
2022-11-24T15:56:42.144Z,16.92
2022-11-24T15:59:20.803Z,15.80
2022-11-24T16:01:49.841Z,20.70
2022-11-24T16:04:17.196Z,21.15
2022-11-24T16:06:44.134Z,16.30
2022-11-24T16:09:18.545Z,20.98
2022-11-24T16:11:48.082Z,17.80
2022-11-24T16:14:22.856Z,19.83
2022-11-24T16:16:52.953Z,16.38
2022-11-24T16:19:19.859Z,19.25
2022-11-24T16:21:52.870Z,19.15
2022-11-24T16:24:21.009Z,21.20
2022-11-24T16:26:55.619Z,19.30
2022-11-24T16:29:35.333Z,15.25
2022-11-24T16:32:05.561Z,19.25
2022-11-24T16:34:32.710Z,22.40
2022-11-24T16:37:00.019Z,20.30
2022-11-24T16:39:29.695Z,25.13
2022-11-24T16:41:58.916Z,20.65
2022-11-24T16:44:26.005Z,20.33
2022-11-24T16:46:56.429Z,20.15
2022-11-24T16:49:29.222Z,20.23
2022-11-24T16:51:56.351Z,22.08
2022-11-24T16:54:23.610Z,21.40
2022-11-24T16:56:50.480Z,19.65
2022-11-24T16:59:17.715Z,22.70
2022-11-24T17:01:46.687Z,21.70
2022-11-24T17:04:14.170Z,21.85
2022-11-24T17:06:41.231Z,18.48
2022-11-24T17:09:09.233Z,18.88
2022-11-24T17:11:44.550Z,20.75
2022-11-24T17:14:14.696Z,23.17
2022-11-24T17:16:42.872Z,19.67
2022-11-24T17:19:10.459Z,22.00
2022-11-24T17:21:37.802Z,18.52
2022-11-24T17:24:05.606Z,18.25
2022-11-24T17:26:33.659Z,17.73
2022-11-24T17:29:00.711Z,18.50
2022-11-24T17:31:31.080Z,17.73
2022-11-24T17:34:03.338Z,19.58
2022-11-24T17:36:32.473Z,19.33
2022-11-24T17:39:00.242Z,18.50
2022-11-24T17:41:28.167Z,19.02
2022-11-24T17:43:59.505Z,18.77
2022-11-24T17:46:28.022Z,19.15
2022-11-24T17:48:55.331Z,17.90
2022-11-24T17:51:24.634Z,18.50
2022-11-24T17:54:18.657Z,17.73
2022-11-24T17:56:53.193Z,17.95
2022-11-24T17:59:25.255Z,16.27
2022-11-24T18:01:53.491Z,16.85
2022-11-24T18:04:20.694Z,18.87
2022-11-24T18:06:47.583Z,17.05
2022-11-24T18:09:14.577Z,17.55
2022-11-24T18:11:44.061Z,18.75
2022-11-24T18:14:11.078Z,16.75
2022-11-24T18:16:38.057Z,18.50
2022-11-24T18:19:18.414Z,16.33
2022-11-24T18:21:51.293Z,18.23
2022-11-24T18:27:27.916Z,12.52
2022-11-24T18:30:24.064Z,15.57
2022-11-24T18:33:24.605Z,15.27
2022-11-24T18:36:37.715Z,17.75
2022-11-24T18:39:33.022Z,16.45
2022-11-24T18:42:00.150Z,17.35
2022-11-24T18:44:38.163Z,15.73
2022-11-24T18:52:39.521Z,14.80
2022-11-24T18:55:08.469Z,15.48
2022-11-24T18:57:38.951Z,14.90
2022-11-24T19:00:07.786Z,16.80
2022-11-24T19:02:35.378Z,15.95
2022-11-24T19:05:04.954Z,15.73
2022-11-24T19:07:37.438Z,17.15
2022-11-24T19:10:08.499Z,16.67
2022-11-24T19:12:39.677Z,14.10
2022-11-24T19:15:07.511Z,15.68
2022-11-24T19:17:35.647Z,14.25
2022-11-24T19:20:06.323Z,13.07
2022-11-24T19:22:35.797Z,14.43
2022-11-24T19:25:16.342Z,14.48
2022-11-24T19:28:17.123Z,16.02
2022-11-24T19:31:21.501Z,12.45
2022-11-24T19:34:03.701Z,14.55
2022-11-24T19:36:38.418Z,17.93
2022-11-24T19:39:09.785Z,13.90
2022-11-24T19:41:36.735Z,19.85
2022-11-24T19:44:04.108Z,18.73
2022-11-24T19:46:34.817Z,15.15
2022-11-24T19:49:07.336Z,17.30
2022-11-24T19:51:49.364Z,17.48
2022-11-24T19:54:17.250Z,14.88
2022-11-24T19:56:44.451Z,14.82
2022-11-24T19:59:13.695Z,14.18
2022-11-24T20:01:42.750Z,17.20
2022-11-24T20:04:12.833Z,15.75
2022-11-24T20:06:42.091Z,14.48
2022-11-24T20:09:16.529Z,18.40
2022-11-24T20:11:44.195Z,19.30
2022-11-24T20:17:32.696Z,13.75
2022-11-24T20:20:02.117Z,13.75
2022-11-24T20:22:30.027Z,13.05
2022-11-24T20:24:56.994Z,11.80
2022-11-24T20:27:23.887Z,12.20
2022-11-24T20:29:53.679Z,12.18
2022-11-24T20:32:20.809Z,12.95
2022-11-24T20:34:52.408Z,13.90
2022-11-24T20:37:19.370Z,14.63
2022-11-24T20:39:46.445Z,12.93
2022-11-24T20:42:14.563Z,12.73
2022-11-24T20:44:41.645Z,12.88
2022-11-24T20:47:11.173Z,12.32
2022-11-24T20:49:47.114Z,13.25
2022-11-24T20:52:17.697Z,13.03
2022-11-24T20:54:46.991Z,16.15
2022-11-24T20:57:16.682Z,12.55
2022-11-24T20:59:43.979Z,12.63
2022-11-24T21:02:13.851Z,13.60
2022-11-24T21:04:47.573Z,16.17
2022-11-24T21:07:15.872Z,11.38
2022-11-24T21:09:43.014Z,11.57
2022-11-24T21:12:10.205Z,14.65
2022-11-24T21:14:37.670Z,13.30
2022-11-24T21:17:04.984Z,10.67
2022-11-24T21:19:36.002Z,11.68
2022-11-24T21:22:02.909Z,10.95
2022-11-24T21:24:33.460Z,11.25
2022-11-24T21:27:03.151Z,10.88
2022-11-24T21:29:33.255Z,9.73
2022-11-24T21:32:03.176Z,11.82
2022-11-24T21:34:30.271Z,16.58
2022-11-24T21:37:12.141Z,14.27
2022-11-24T21:39:40.962Z,11.85
2022-11-24T21:42:07.952Z,11.93
2022-11-24T21:44:38.334Z,10.45
2022-11-24T21:47:05.462Z,12.10
2022-11-24T21:49:32.619Z,9.52
2022-11-24T21:51:59.533Z,13.07
2022-11-24T21:54:26.629Z,13.73
2022-11-24T21:56:54.277Z,11.52
2022-11-24T21:59:22.164Z,12.30
2022-11-24T22:01:57.926Z,13.73
2022-11-24T22:04:25.068Z,15.38
2022-11-24T22:06:55.591Z,17.27
2022-11-24T22:09:22.828Z,12.20
2022-11-24T22:11:49.854Z,13.57
2022-11-24T22:14:17.123Z,11.32
2022-11-24T22:16:47.591Z,12.32
2022-11-24T22:19:16.936Z,15.17
2022-11-24T22:21:48.244Z,11.80
2022-11-24T22:24:15.287Z,10.63
2022-11-24T22:26:42.249Z,13.43
2022-11-24T22:29:09.306Z,12.52
2022-11-24T22:31:36.405Z,13.10
2022-11-24T22:34:03.345Z,13.73
2022-11-24T22:36:32.974Z,12.05
2022-11-24T22:39:05.732Z,12.57
2022-11-24T22:41:34.797Z,13.60
2022-11-24T22:44:02.121Z,10.67
2022-11-24T22:46:30.631Z,12.82
2022-11-24T22:49:00.250Z,13.68
2022-11-24T22:51:30.013Z,9.77
2022-11-24T22:54:06.151Z,10.38
2022-11-24T22:56:34.217Z,13.00
2022-11-24T22:59:02.645Z,13.55
2022-11-24T23:01:31.607Z,13.10
2022-11-24T23:03:58.667Z,15.20
2022-11-24T23:06:28.113Z,12.30
2022-11-24T23:08:56.753Z,10.80
2022-11-24T23:11:36.411Z,13.18
2022-11-24T23:14:12.098Z,15.23
2022-11-24T23:16:39.310Z,12.85
2022-11-24T23:19:06.603Z,12.00
2022-11-24T23:21:36.642Z,12.03
2022-11-24T23:24:04.604Z,10.98
2022-11-24T23:26:36.131Z,10.77
2022-11-24T23:29:06.720Z,12.38
2022-11-24T23:31:34.099Z,11.30
2022-11-24T23:34:03.525Z,11.03
2022-11-24T23:36:32.426Z,11.75
2022-11-24T23:39:07.465Z,12.52
2022-11-24T23:41:34.878Z,11.32
2022-11-24T23:44:01.985Z,10.30
2022-11-24T23:46:29.330Z,11.00
2022-11-24T23:48:57.288Z,9.77
2022-11-24T23:51:26.917Z,10.98
2022-11-24T23:53:54.802Z,10.73
2022-11-24T23:56:24.953Z,10.63
2022-11-24T23:58:52.121Z,12.13
